Challenge de la Province de Liège

La Corrida de la Boverie à Liège (9.70 km)

jeudi 01 novembre 2018

Le classement original se trouve sur : http://www.cjpl.eu/challenge/        
CHALLENGE DE LA PROVINCE DE LIEGE
LA CORRIDA DE LA BOVERIE - LIEGE
DISTANCE : 9.70 km
jeudi 01 novembre 2018
 
Place dos NOM EQUIPE Catégorie Pl/cat temps temps/km Vitesse
1 7127 PATRICK PHILIPPE JIA VÉT1 1 0:32:52 03:23 17.70
2 7029 THOMAS VAN HEE MJ SPORT SENIORS 1 0:33:14 03:26 17.50
3 7072 JULIEN CHARLIER ENTREPARENTHESES SENIORS 2 0:33:47 03:29 17.22
4 175 CHRISTOPHE SCHOLZEN SOMJA RUNNING SENIORS 3 0:33:58 03:30 17.13
5 2 GRÉGORY BAAR SOMJA RUNNING SENIORS 4 0:34:19 03:32 16.95
6 7025 CHRISTOPHE CASTERMANS ZLTC TRIATHONCLUB VÉT1 2 0:35:19 03:39 16.47
7 7113 REMI LECAT OCRBW SENIORS 5 0:35:31 03:40 16.38
8 7060 FABRICE CUIPERS WATTS VÉT1 3 0:35:43 03:41 16.29
9 7084 LAURENT OLIVIER CHALLENGE AVENIR VÉT1 4 0:36:09 03:44 16.09
10 186 HERVE DEBATTY - VÉT1 5 0:36:30 03:46 15.94
11 7002 DAVID FRISON OMEGA MJ SPORT VÉT1 6 0:36:38 03:47 15.88
12 7065 ANDY VANEETVELD - SENIORS 6 0:37:07 03:50 15.67
13 7028 REGINALD DEHIN MJ SPORT SENIORS 7 0:37:34 03:52 15.49
14 7040 ARNAUD LARUE - SENIORS 8 0:37:36 03:53 15.47
15 14 YVES GARIN JIA VÉT1 7 0:37:41 03:53 15.44
16 180 BENOÎT PAQUES RFCL SENIORS 9 0:37:54 03:55 15.35
17 7077 ANDRE ESTEBEL ATHL SCRI VÉT1 8 0:38:03 03:55 15.29
18 7126 IRENE TOSI JIA DAMES 1 0:38:10 03:56 15.24
19 16 ETIENNE BUCKINX RFCL VÉT2 1 0:38:25 03:58 15.14
20 19 LUCA MERCIADRI - SENIORS 10 0:38:35 03:59 15.08
21 7062 PIERRE RAVIGNA JIA VÉT3 1 0:38:39 03:59 15.05
22 115 ALAIN GUISSART - VÉT1 9 0:38:47 04:00 15.00
23 164 RUDY SIRAULT HUY ATHLETIC CLUB VÉT1 10 0:38:53 04:01 14.96
24 63 JEAN-MARC DANIELS RUNNERS BERNEAU VÉT2 2 0:38:57 04:01 14.94
25 57 PASCAL BOLLEN SERAING ATHÉTISME VÉT2 3 0:39:13 04:03 14.83
26 7041 MAXIME H SCHREURS - SENIORS 11 0:39:14 04:03 14.83
27 24 JONATHAN JORIS SOMJA RUNNING OLNE SENIORS 12 0:39:22 04:04 14.78
28 68 JEAN-MARIE CHUDYBA JOG'IN'ATTITUDE VÉT2 4 0:39:24 04:04 14.76
29 96 DELPHINE THIRIFAYS RFCL DAMES 2 0:39:24 04:04 14.76
30 7016 DAVID WERNER BCT SENIORS 13 0:39:25 04:04 14.76
31 7068 MOURAD IDRAF - VÉT1 11 0:39:41 04:06 14.66
32 7009 LILIAN THONET AC NEUPRE VÉT1 12 0:39:50 04:07 14.60
33 7102 FABIAN TRUS - VÉT1 13 0:39:52 04:07 14.59
34 48 SERVAIS HALDERS HF VÉT3 2 0:39:55 04:07 14.57
35 7053 BERNARD DEGHAYE - VÉT2 5 0:40:00 04:08 14.54
36 210 JEAN-LUC BOVI RFCL VÉT1 14 0:40:02 04:08 14.53
37 7149 LIONEL FRERES - SENIORS 14 0:40:06 04:08 14.51
38 7020 J YVES NOVOCELCUK - VÉT1 15 0:40:15 04:09 14.45
39 6 ROLAND EVRARD - SENIORS 15 0:40:31 04:11 14.36
40 7022 MICHEL BIELEN RFCL VÉT2 6 0:40:49 04:13 14.25
41 7001 VALERY EVRARD SER ATHL VÉT1 16 0:41:01 04:14 14.18
42 216 RUDY LACROIX SER ATHL VÉT3 3 0:41:10 04:15 14.13
43 74 PATRICK DAMBLON CHALLENGE AVENIR VÉT2 7 0:41:15 04:15 14.10
44 7045 TOMOKA SUDO - AIN1 1 0:41:27 04:17 14.03
45 7086 LIONEL LEDIEU JACQUIE ET MICHEL SENIORS 16 0:41:29 04:17 14.02
46 7071 SARAH ACQUISTAPACE - ESPD 1 0:41:38 04:18 13.97
47 7098 MARC VAN DAMME - SENIORS 17 0:41:39 04:18 13.97
48 51 LAURENT KNAPEN JOGIN'ATTITUDE VÉT3 4 0:41:48 04:19 13.92
49 143 MICHEL JEUKENS - VÉT1 17 0:41:49 04:19 13.91
50 7101 HUGO TRUS - ESPH 1 0:41:53 04:19 13.89
51 7104 LARBI CHABABE SER ATHL VÉT1 18 0:41:57 04:20 13.87
52 32 MICHEL RIGO - VÉT1 19 0:42:00 04:20 13.85
53 215 JEAN-PHILIPPE SOMJA SOMJA RUNNING SENIORS 18 0:42:06 04:21 13.82
54 7047 YVES KEIL JIA VÉT1 20 0:42:12 04:21 13.79
55 7034 PIERRE LENNES TRIGT VÉT3 5 0:42:18 04:22 13.75
56 320 MICHEL BARNABE RDV RUN BEYNE VÉT2 8 0:42:30 04:23 13.69
57 592 FERNANDO FERREIRA - SENIORS 19 0:42:44 04:24 13.61
58 156 DOMINIQUE FREDERICH HERVE AIN2 1 0:42:46 04:25 13.60
59 7005 DIDIER DENDAL - VÉT2 9 0:42:52 04:25 13.57
60 34 LUDOVIC DALLA CORTE - SENIORS 20 0:42:57 04:26 13.54
61 36 NICOLAS BYNENS JOGGING CLUB DE JUPRELLE VÉT3 6 0:43:00 04:26 13.53
62 240 FABIAN NIHANT FNJC VÉT2 10 0:43:20 04:28 13.42
63 7080 CARMELO PILLITTERI WACO VÉT2 11 0:43:38 04:30 13.33
64 40 ALBERTO CANALES - VÉT3 7 0:43:43 04:31 13.31
65 7076 MICHAEL TRIVILINI SOLIDA RUN SENIORS 21 0:43:55 04:32 13.25
66 54 JOEFREY ROUFOSSE VOUS RUN VÉT2 12 0:44:01 04:32 13.22
67 5 RICHARD MATHOT - VÉT3 8 0:44:05 04:33 13.20
68 350 JEAN WEERTS - VÉT1 21 0:44:05 04:33 13.20
69 165 VALERIE FRANCOIS WACO AIN2 2 0:44:15 04:34 13.15
70 7011 MANUEL BOSCOLO JIA VÉT1 22 0:44:28 04:35 13.08
71 7036 BRUNO LUPCIN - SENIORS 22 0:44:45 04:37 13.00
72 159 JEAN-PIERRE JANS - VÉT3 9 0:44:53 04:38 12.96
73 7091 ARTHUR SNYDERS SER ATHL SENIORS 23 0:45:03 04:39 12.91
74 7129 PASCAL LELOUP - VÉT1 23 0:45:04 04:39 12.91
75 7116 FRANCIS SMETS BRS TEAM VÉT2 13 0:45:09 04:39 12.88
76 7150 RUBEN FALCON RAMIREZ - SENIORS 24 0:45:30 04:42 12.79
77 7056 ALEXIS THOMAS - XXX   0:45:36 04:42 12.76
78 7043 NICOLAS THEISMANS AMAY SENIORS 25 0:45:37 04:42 12.75
79 7075 MARIANNE DUMONT SER ATHL AIN1 2 0:45:54 04:44 12.67
80 174 CLAUDE HERZET - VÉT3 10 0:45:56 04:44 12.66
81 77 NATHALIE STEIMES SER ATHL AIN1 3 0:46:14 04:46 12.58
82 7046 MICHEL BORGS - VÉT2 14 0:46:16 04:46 12.57
83 125 NATHALIE RIBANT - ESPD 2 0:46:19 04:47 12.56
84 85 ERIC LESSAIN - VÉT2 15 0:46:20 04:47 12.56
85 170 LUCIANO BATTISTINI NEUPRE AC VÉT3 11 0:46:23 04:47 12.54
86 7074 STEPHANE COLBACK - VÉT1 24 0:46:29 04:48 12.52
87 7132 MARC DOTHEE BEAUF TEAM VÉT2 16 0:46:31 04:48 12.51
88 66 PIERRE LEFORT A.M.C. VÉT1 25 0:46:40 04:49 12.47
89 98 DIMITRI MANFÉ - SENIORS 26 0:47:00 04:51 12.38
90 70 JOËL DARCIS RDV RUN SENIORS 27 0:47:02 04:51 12.37
91 7033 WILLY CORTLEVEN - VÉT4 1 0:47:05 04:51 12.36
92 7151 ALAIN ORBAN - VÉT1 26 0:47:10 04:52 12.33
93 7105 FABRICE MASSCHELEIN - VÉT1 27 0:47:44 04:55 12.19
94 87 XUAN-MAI TRAN ACBBS AIN1 4 0:47:48 04:56 12.17
95 7144 ROBERT GILLES NEUPRE AC VÉT2 17 0:47:54 04:56 12.14
96 7079 BRAHIM GHARBI - SENIORS 28 0:48:25 05:00 12.02
97 7143 STEVE DERWA - SENIORS 29 0:48:28 05:00 12.00
98 7085 ROMAIN CLOBERT JACQUIE ET MICHEL SENIORS 30 0:48:40 05:01 11.95
99 7064 BERNARD DELHOGNE - VÉT2 18 0:48:42 05:01 11.95
100 336 RENE EGGEN - VÉT3 12 0:48:47 05:02 11.92
101 7117 J NICOLAS DEWAIDE BXL RUN CREW VÉT1 28 0:48:50 05:02 11.91
102 38 JEAN PIERRE IMMERIX - VÉT3 13 0:49:01 05:03 11.87
103 7140 MAXIME WILKIN JIA SENIORS 31 0:49:30 05:06 11.75
104 7087 ROLZY O BRION - VÉT1 29 0:49:32 05:07 11.74
105 225 J LUC LETELLIER - VÉT2 19 0:49:41 05:07 11.71
106 238 SANDRA DELREZ - AIN1 5 0:49:45 05:08 11.69
107 33 ALAIN DETHIER - VÉT2 20 0:49:46 05:08 11.69
108 7114 J LOUIS DEKETELHERE - VÉT1 30 0:49:48 05:08 11.68
109 58 SEVERINE PIRARD RDV RUN AIN1 6 0:50:00 05:09 11.63
110 123 FRANCOISE PISCART - AIN1 7 0:50:05 05:10 11.62
111 7092 GREGORY ISTACE - SENIORS 32 0:50:06 05:10 11.61
112 109 HERVÉ HANUSSEK - SENIORS 33 0:50:09 05:10 11.60
113 7054 HUGO RADDOUX HWJ HOEGARDEN VÉT3 14 0:50:10 05:10 11.60
114 7055 XAVIER THOMAS - VÉT1 31 0:50:20 05:11 11.56
115 7057 CHRISTINE TROISFONTAINES - AIN1 8 0:50:21 05:12 11.55
116 7141 HUGUES WILKIN - SENIORS 34 0:50:34 05:13 11.50
117 55 FABRICE RONCATO - SENIORS 35 0:50:46 05:14 11.46
118 25 PIERRE FRANÇUS - SENIORS 36 0:50:55 05:15 11.43
119 7012 JEREMY LARUELLE HUY SENIORS 37 0:50:57 05:15 11.42
120 7042 DIDIER GUILLEMARD MILL PATTES VITRE VÉT3 15 0:51:09 05:17 11.37
121 41 PHILIPPE CHARLIER MUSICALBOX VÉT2 21 0:51:13 05:17 11.36
122 7017 MICHEL WERNER - VÉT2 22 0:51:23 05:18 11.32
123 7066 LUDOVIC DETHIER - SENIORS 38 0:51:30 05:19 11.30
124 80 BERNARD FERNANDEZ HERRERA SODEXO RUN VÉT1 32 0:51:40 05:20 11.26
125 7058 ANTOINE THOMAS BMFA VISE ESPH 2 0:51:45 05:20 11.24
126 7145 MANUEL PARRADO - SENIORS 39 0:51:50 05:21 11.22
127 7021 DIDIER STEINWEG - VÉT1 33 0:51:51 05:21 11.22
128 7024 ALEXANDRE GRANDCHAMPS - VÉT3 16 0:51:54 05:21 11.21
129 7115 DAMIEN VERBOVEN - SENIORS 40 0:52:01 05:22 11.18
130 7147 J PASCAL ANCION - VÉT2 23 0:52:03 05:22 11.18
131 7137 JASMINE HUYTS - DAMES 3 0:52:09 05:23 11.16
132 79 DOMINIQUE LELOUP RDV RUN BEYNE-HEUSAY AIN2 3 0:52:11 05:23 11.15
133 7089 JEAN LHOEST - VÉT3 17 0:52:11 05:23 11.15
134 7032 ISABELLE VRANCKEN - AIN1 9 0:52:12 05:23 11.14
135 11 ANNICK BOSSELOIR RDV RUN BEYNE-HEUSAY AIN1 10 0:52:16 05:23 11.13
136 42 WILLY HERTOGEN BJC VÉT4 2 0:52:19 05:24 11.12
137 177 PATRICK VOLON - VÉT2 24 0:53:08 05:29 10.95
138 7049 CHRISTIAN MEYERS ZATAC VÉT3 18 0:53:21 05:30 10.90
139 7139 PATRICK DELARBRE - VÉT1 34 0:53:53 05:33 10.80
140 7138 AURORE CASTAGNETTI - DAMES 4 0:53:53 05:33 10.80
141 149 CALOGERO MAURO SER ATHL VÉT4 3 0:54:12 05:35 10.73
142 7128 PATRICK GILLON - VÉT1 35 0:54:13 05:36 10.73
143 7050 J FRANCOIS PONZO RDV RUN BEYNE VÉT1 36 0:54:27 05:37 10.68
144 7090 SARAH LHOEST - DAMES 5 0:54:43 05:39 10.63
145 7063 FRANCOIS ACQUISTAPACE - VÉT2 25 0:54:54 05:40 10.60
146 7031 MARC LIBERT - VÉT2 26 0:55:00 05:40 10.58
147 7094 PHILIPPE EVAIN - VÉT2 27 0:55:12 05:42 10.54
148 7018 ROXANE NOVOCELCUK - DAMES 6 0:55:21 05:43 10.51
149 7038 CHRISTIAN DEFFET - VÉT1 37 0:55:26 05:43 10.49
150 60 FABRICE PETERS - VÉT1 38 0:55:27 05:43 10.49
151 7039 OLIVIER MEMURLIN - SENIORS 41 0:55:28 05:43 10.49
152 7059 NATHAN PALBUS - VÉT1 39 0:55:30 05:43 10.48
153 7070 BENJAMIN VOLLEBREGT - SENIORS 42 0:55:30 05:43 10.48
154 7095 PATRICIA DELAHAUT - AIN1 11 0:55:33 05:44 10.47
155 7023 PERRINE HOSAY - ESPD 3 0:55:54 05:46 10.41
156 7035 FRANCOISE SCHEFFAUT - AIN2 4 0:55:54 05:46 10.41
157 7142 J FRANCOIS CORMAN - VÉT1 40 0:56:06 05:47 10.37
158 277 GYULA NELHIEBEL - VÉT2 28 0:56:22 05:49 10.32
159 7118 FREDERIC SELVES - VÉT1 41 0:57:04 05:53 10.19
160 7121 LAURENT SELVES - SENIORS 43 0:57:05 05:53 10.19
161 7119 MARIE SELVES - DAMES 7 0:57:23 05:55 10.14
162 7120 MARION LECHIEN RIWA DAMES 8 0:57:23 05:55 10.14
163 7131 PATRICK PETERS - VÉT3 19 0:58:08 06:00 10.01
164 7096 CATHY DELFOSSE - DAMES 9 0:58:26 06:02 9.96
165 7136 MARLENE VACHERON - AIN1 12 0:59:27 06:08 9.79
166 7130 M JULIE PETERS - DAMES 10 0:59:27 06:08 9.79
167 7007 NOAH TROISFONTAINE JIA XXX   0:59:45 06:10 9.74
168 7073 FLORA BETTIOL - AIN1 13 0:59:56 06:11 9.71
169 7134 PATRICIA DANTINNE - AIN2 5 1:00:03 06:12 9.69
170 7123 MARIE DELRUELLE - DAMES 11 1:00:06 06:12 9.68
171 106 SYLVIE MERCIER RDV RUN BEYNE HEUSAY AIN1 14 1:00:10 06:12 9.67
172 7006 SANDRA VANDAELE - AIN1 15 1:00:49 06:16 9.57
173 7097 RAMONA FABBRI - DAMES 12 1:01:38 06:21 9.44
174 7013 CAROLINE HUSSIN - DAMES 13 1:02:26 06:26 9.32
175 7103 ROHNNY PETITJEAN JOGGINGTIME.BE VÉT2 29 1:03:31 06:33 9.16
176 7112 SOPHIE DEMOLLIN RDV RUN BEYNE AIN1 16 1:04:10 06:37 9.07
177 61 SABRINA CUYX - DAMES 14 1:04:16 06:38 9.05
178 72 DOMINIQUE NIJS JOGGING ATTITUDE AIN3 1 1:04:58 06:42 8.95
179 7146 FABIENNE THOMAS - AIN1 17 1:05:14 06:44 8.92
180 7008 PRISCILLA VAN LUNTER - AIN1 18 1:08:15 07:02 8.52